HEAT

Assiut International Airport

Assiut, Egypt
METAR HEAT 230900Z 18004KT CAVOK 24/10 Q1009 NOSIG
Observed Flight Rules
Feb-23 @ 09:00 UTC (2 hours ago) Visual Flight Rules
Wind Visibility Clouds
180° at 4 knots 10,000+ meters
  • Clear skies
Temperatures Readings
Current 24°C / 75°F
Dewpoint 10°C / 50°F
Humidity 41%
Altimeter 29.79" Hg
Pressure 1009 hPa
Elevation 70
METAR HEAT 230900Z 18004KT CAVOK 24/10 Q1009 NOSIG
Observed Flight Rules
Feb-23 @ 09:00 UTC
(2 hours ago)
VFR
Wind Visibility
180° at 4 knots 10,000+ meters
Clouds
  • Clear skies
Temperature Dewpoint
24°C / 75°F 10°C / 50°F
Humidity Altimeter Pressure
41% 29.79" Hg 1009 hPa